Time;durP1;ratioP1;P1;durP2;ratioP2;P2;SDS_P1;SDS_P2;PMS_P1;PMS_P2;Temp;Humidity;BMP_temperature;BMP_pressure;BME280_temperature;BME280_humidity;BME280_pressure;Samples;Min_cycle;Max_cycle;Signal;HPM_P1;HPM_P2
2021/04/23 00:02:14;;;;;;;5.57;0.90;;;3.00;99.90;;;;;;5094416;28;20051;-78
2021/04/23 00:04:39;;;;;;;5.13;0.82;;;3.00;99.90;;;;;;5094441;28;20084;-75
2021/04/23 00:07:05;;;;;;;5.75;0.88;;;2.90;99.90;;;;;;5093271;28;20070;-75
2021/04/23 00:09:33;;;;;;;6.75;1.80;;;2.90;99.90;;;;;;5093961;28;20020;-75
2021/04/23 00:12:12;;;;;;;1.55;0.47;;;2.90;99.90;;;;;;5094485;28;20030;-74
2021/04/23 00:14:45;;;;;;;3.25;0.50;;;2.90;99.90;;;;;;5094323;28;20497;-77
2021/04/23 00:17:11;;;;;;;8.23;1.00;;;2.90;99.90;;;;;;5095161;28;20058;-75
2021/04/23 00:19:37;;;;;;;4.13;0.30;;;2.90;99.90;;;;;;5093976;28;20028;-74
2021/04/23 00:22:04;;;;;;;5.82;1.42;;;2.90;99.90;;;;;;5092724;28;20070;-74
2021/04/23 00:24:30;;;;;;;3.08;0.50;;;2.90;99.90;;;;;;5099921;22;20047;-74
2021/04/23 00:26:56;;;;;;;3.72;0.55;;;2.90;99.90;;;;;;5059389;28;20024;-74
2021/04/23 00:29:24;;;;;;;12.48;1.20;;;2.90;99.90;;;;;;5077219;28;20043;-74
2021/04/23 00:34:18;;;;;;;5.35;0.75;;;2.90;99.90;;;;;;5056598;28;20049;-74
2021/04/23 00:36:43;;;;;;;7.30;0.82;;;2.80;99.90;;;;;;5056291;28;20032;-76
2021/04/23 00:39:09;;;;;;;5.43;1.35;;;2.80;99.90;;;;;;5071025;28;20051;-77
2021/04/23 00:41:36;;;;;;;6.20;1.08;;;2.80;99.90;;;;;;5060042;28;20449;-74
2021/04/23 00:44:03;;;;;;;9.60;1.15;;;2.80;99.90;;;;;;5096137;22;20666;-74
2021/04/23 00:46:31;;;;;;;4.03;0.70;;;2.80;99.90;;;;;;5077529;28;20032;-74
2021/04/23 00:49:01;;;;;;;6.78;0.93;;;2.80;99.90;;;;;;5077262;28;20016;-75
2021/04/23 00:51:30;;;;;;;3.10;0.65;;;2.70;99.90;;;;;;5079089;28;20043;-74
2021/04/23 00:53:58;;;;;;;6.20;1.23;;;2.70;99.90;;;;;;5059185;28;20118;-74
2021/04/23 00:56:30;;;;;;;7.63;2.75;;;2.70;99.90;;;;;;5077594;28;20070;-74
2021/04/23 00:58:57;;;;;;;5.97;1.38;;;2.70;99.90;;;;;;5079571;22;20554;-73
2021/04/23 01:01:29;;;;;;;6.18;1.98;;;2.70;99.90;;;;;;5078731;28;20020;-74
2021/04/23 01:03:56;;;;;;;11.95;1.25;;;2.70;99.90;;;;;;5096538;28;20017;-75
2021/04/23 01:06:25;;;;;;;6.55;1.55;;;2.70;99.90;;;;;;5078848;28;20407;-75
2021/04/23 01:08:53;;;;;;;5.68;0.50;;;2.70;99.90;;;;;;5110000;22;20052;-74
2021/04/23 01:11:21;;;;;;;6.38;1.20;;;2.60;99.90;;;;;;5097116;28;20024;-75
2021/04/23 01:13:47;;;;;;;6.18;0.82;;;2.60;99.90;;;;;;5079541;28;20504;-74
2021/04/23 01:16:16;;;;;;;5.00;0.73;;;2.50;99.90;;;;;;5096954;28;20099;-74
2021/04/23 01:18:43;;;;;;;7.07;1.33;;;2.50;99.90;;;;;;5078240;28;20118;-74
2021/04/23 01:21:20;;;;;;;9.38;1.10;;;2.50;99.90;;;;;;5078179;28;20042;-74
2021/04/23 01:23:50;;;;;;;7.93;0.90;;;2.40;99.90;;;;;;5078140;28;20131;-74
2021/04/23 01:26:18;;;;;;;6.78;0.60;;;2.40;99.90;;;;;;5077802;28;20031;-74
2021/04/23 01:28:46;;;;;;;2.92;0.73;;;2.40;99.90;;;;;;5077698;28;20016;-74
2021/04/23 01:31:14;;;;;;;6.03;0.40;;;2.40;99.90;;;;;;5096528;28;20485;-74
2021/04/23 01:33:43;;;;;;;11.23;0.80;;;2.40;99.90;;;;;;5096823;28;20290;-74
2021/04/23 01:36:12;;;;;;;16.90;2.05;;;2.40;99.90;;;;;;5078038;28;20020;-74
2021/04/23 01:38:39;;;;;;;9.63;0.82;;;2.30;99.90;;;;;;5096328;28;20024;-74
2021/04/23 01:41:05;;;;;;;6.95;0.68;;;2.30;99.90;;;;;;5078056;28;20024;-74
2021/04/23 01:43:31;;;;;;;9.45;0.65;;;2.30;99.90;;;;;;5096064;28;20069;-74
2021/04/23 01:45:56;;;;;;;2.97;0.52;;;2.20;99.90;;;;;;5077846;28;20505;-74
2021/04/23 01:48:22;;;;;;;6.22;0.80;;;2.20;99.90;;;;;;5095684;28;20024;-74
2021/04/23 01:50:48;;;;;;;6.90;0.98;;;2.20;99.90;;;;;;5077756;28;20019;-74
2021/04/23 01:53:14;;;;;;;7.03;0.75;;;2.20;99.90;;;;;;5077769;28;20024;-74
2021/04/23 01:58:12;;;;;;;3.85;1.00;;;2.20;99.90;;;;;;5079861;28;20048;-77
2021/04/23 02:00:47;;;;;;;3.47;0.57;;;2.10;99.90;;;;;;5077792;28;20020;-77
2021/04/23 02:03:13;;;;;;;3.10;0.68;;;2.10;99.90;;;;;;5095867;28;20020;-73
2021/04/23 02:05:41;;;;;;;6.68;0.82;;;2.10;99.90;;;;;;5095378;28;20081;-74
2021/04/23 02:08:08;;;;;;;6.25;1.05;;;2.10;99.90;;;;;;5094947;28;20020;-74
2021/04/23 02:10:37;;;;;;;3.22;1.20;;;2.10;99.90;;;;;;5077168;28;20020;-74
2021/04/23 02:13:05;;;;;;;11.07;1.50;;;2.10;99.90;;;;;;5077029;28;20016;-74
2021/04/23 02:15:31;;;;;;;5.50;0.68;;;2.00;99.90;;;;;;5095383;28;20078;-74
2021/04/23 02:17:58;;;;;;;6.25;0.30;;;2.00;99.90;;;;;;5095136;28;20396;-74
2021/04/23 02:20:28;;;;;;;3.03;0.50;;;2.00;99.90;;;;;;5095630;28;20468;-73
2021/04/23 02:22:53;;;;;;;;;;;1.90;99.90;;;;;;5096128;28;20031;-73
2021/04/23 02:25:21;;;;;;;2.00;0.40;;;1.90;99.90;;;;;;5076915;28;20352;-73
2021/04/23 02:27:47;;;;;;;6.95;1.15;;;1.90;99.90;;;;;;5076656;28;20012;-73
2021/04/23 02:30:20;;;;;;;3.88;0.60;;;1.90;99.90;;;;;;5076518;28;20019;-73
2021/04/23 02:32:46;;;;;;;6.40;0.40;;;1.80;99.90;;;;;;5076876;28;20024;-74
2021/04/23 02:35:13;;;;;;;4.80;0.73;;;1.80;99.90;;;;;;5077000;28;20542;-74
2021/04/23 02:37:40;;;;;;;3.08;0.47;;;1.80;99.90;;;;;;5095136;28;20154;-74
2021/04/23 02:40:08;;;;;;;2.45;0.55;;;3.30;99.90;;;;;;5076838;28;20048;-74
2021/04/23 02:42:35;;;;;;;5.30;0.70;;;1.70;99.90;;;;;;5095065;28;20090;-74
2021/04/23 02:45:06;;;;;;;5.40;0.70;;;1.60;99.90;;;;;;5095247;28;20024;-74
2021/04/23 02:47:32;;;;;;;4.22;0.63;;;1.60;99.90;;;;;;5094422;28;20027;-74
2021/04/23 02:49:58;;;;;;;3.47;0.75;;;1.60;99.90;;;;;;5094671;28;20028;-74
2021/04/23 02:52:23;;;;;;;9.10;1.27;;;1.50;99.90;;;;;;5076482;28;20020;-74
2021/04/23 02:54:49;;;;;;;2.53;0.88;;;1.60;99.90;;;;;;5094818;28;20023;-74
2021/04/23 02:57:16;;;;;;;5.53;1.02;;;1.60;99.90;;;;;;5094432;28;20399;-74
2021/04/23 02:59:42;;;;;;;4.20;0.73;;;1.60;99.90;;;;;;5094801;28;20055;-74
2021/04/23 03:02:08;;;;;;;7.15;0.82;;;1.50;99.90;;;;;;5094698;28;20479;-74
2021/04/23 03:04:34;;;;;;;5.78;1.48;;;1.50;99.90;;;;;;5094925;28;20058;-74
2021/04/23 03:07:00;;;;;;;6.05;0.60;;;1.40;99.90;;;;;;5094451;28;20460;-77
2021/04/23 03:09:25;;;;;;;4.03;0.90;;;1.40;99.90;;;;;;5094695;28;20024;-74
2021/04/23 03:11:51;;;;;;;4.13;0.40;;;1.40;99.90;;;;;;5094900;28;20023;-74
2021/04/23 03:14:16;;;;;;;7.22;0.90;;;1.40;99.90;;;;;;5094886;28;20023;-74
2021/04/23 03:16:43;;;;;;;5.13;1.00;;;1.40;99.90;;;;;;5095279;28;20024;-74
2021/04/23 03:19:17;;;;;;;4.40;1.52;;;1.30;99.90;;;;;;5094465;28;20032;-74
2021/04/23 03:21:43;;;;;;;5.47;0.90;;;1.30;99.90;;;;;;5094537;28;20028;-74
2021/04/23 03:24:10;;;;;;;1.92;0.45;;;1.30;99.90;;;;;;5093230;28;20074;-77
2021/04/23 03:26:36;;;;;;;5.03;1.08;;;1.20;99.90;;;;;;5094060;28;20028;-78
2021/04/23 03:29:06;;;;;;;4.93;0.98;;;1.20;99.90;;;;;;5094031;28;20082;-75
2021/04/23 03:31:33;;;;;;;5.05;1.20;;;1.20;99.90;;;;;;5076538;28;20028;-73
2021/04/23 03:33:59;;;;;;;4.32;1.00;;;1.20;99.90;;;;;;5094516;28;20016;-77
2021/04/23 03:36:25;;;;;;;3.78;0.60;;;1.10;99.90;;;;;;5076415;28;20034;-74
2021/04/23 03:38:51;;;;;;;9.20;1.00;;;1.10;99.90;;;;;;5094441;28;20024;-76
2021/04/23 03:41:20;;;;;;;7.75;1.13;;;1.10;99.90;;;;;;5076231;28;20024;-76
2021/04/23 03:43:46;;;;;;;7.28;0.60;;;1.10;99.90;;;;;;5094166;28;20107;-74
2021/04/23 03:46:13;;;;;;;4.55;0.90;;;1.10;99.90;;;;;;5094228;28;20592;-77
2021/04/23 03:48:39;;;;;;;5.13;1.23;;;1.10;99.90;;;;;;5075889;28;20051;-74
2021/04/23 03:51:06;;;;;;;12.07;1.67;;;1.10;99.90;;;;;;5094490;28;20025;-76
2021/04/23 03:53:33;;;;;;;7.38;1.08;;;1.10;99.90;;;;;;5076002;28;20016;-74
2021/04/23 03:55:59;;;;;;;5.50;1.13;;;1.00;99.90;;;;;;5093626;28;20024;-75
2021/04/23 03:58:26;;;;;;;8.88;0.80;;;1.00;99.90;;;;;;5094103;28;20078;-75
2021/04/23 04:00:58;;;;;;;5.53;0.88;;;1.00;99.90;;;;;;5078522;28;20115;-75
2021/04/23 04:03:25;;;;;;;5.22;1.08;;;1.00;99.90;;;;;;5098285;28;20028;-74
2021/04/23 04:05:51;;;;;;;8.32;1.05;;;1.00;99.90;;;;;;5097749;28;20028;-74
2021/04/23 04:08:17;;;;;;;3.75;0.45;;;0.90;99.90;;;;;;5097922;28;20380;-75
2021/04/23 04:10:45;;;;;;;6.03;0.80;;;0.90;99.90;;;;;;5080950;28;20024;-74
2021/04/23 04:13:11;;;;;;;2.40;0.65;;;0.90;99.90;;;;;;5097807;28;20017;-75
2021/04/23 04:15:37;;;;;;;5.97;1.17;;;0.90;99.90;;;;;;5098525;28;20055;-75
2021/04/23 04:18:03;;;;;;;6.65;1.83;;;1.00;99.90;;;;;;5079575;28;20016;-75
2021/04/23 04:20:33;;;;;;;6.13;1.45;;;1.00;99.90;;;;;;5098183;28;20027;-77
2021/04/23 04:22:58;;;;;;;9.10;1.95;;;1.30;99.90;;;;;;5098142;28;20024;-75
2021/04/23 04:25:32;;;;;;;8.98;1.48;;;1.00;99.90;;;;;;5097543;28;20031;-75
2021/04/23 04:27:58;;;;;;;5.93;0.77;;;1.00;99.90;;;;;;5097214;28;20081;-74
2021/04/23 04:30:25;;;;;;;4.55;0.93;;;1.00;99.90;;;;;;5079238;28;20016;-74
2021/04/23 04:32:55;;;;;;;6.32;1.08;;;0.90;99.90;;;;;;5079348;28;20103;-74
2021/04/23 04:35:21;;;;;;;15.52;2.22;;;1.30;99.90;;;;;;5079297;28;20021;-74
2021/04/23 04:37:47;;;;;;;4.07;1.25;;;0.90;99.90;;;;;;5097618;28;20158;-74
2021/04/23 04:40:13;;;;;;;9.43;1.95;;;0.90;99.90;;;;;;5097819;28;20427;-73
2021/04/23 04:42:39;;;;;;;9.05;1.20;;;0.90;99.90;;;;;;5079504;28;20016;-73
2021/04/23 04:45:10;;;;;;;6.07;1.25;;;0.90;99.90;;;;;;5079773;28;20024;-74
2021/04/23 04:47:37;;;;;;;9.88;1.50;;;1.00;99.90;;;;;;5079886;28;20039;-76
2021/04/23 04:50:08;;;;;;;8.73;1.70;;;1.00;99.90;;;;;;5098097;28;20024;-75
2021/04/23 04:52:34;;;;;;;9.77;1.83;;;1.00;99.90;;;;;;5079532;28;20086;-74
2021/04/23 04:55:02;;;;;;;6.80;1.30;;;1.00;99.90;;;;;;5103851;22;20447;-76
2021/04/23 04:57:28;;;;;;;7.85;1.73;;;0.90;99.90;;;;;;5060071;28;20027;-78
2021/04/23 04:59:53;;;;;;;5.55;1.70;;;1.10;99.90;;;;;;5077290;28;20029;-74
2021/04/23 05:02:19;;;;;;;9.25;2.55;;;1.10;99.90;;;;;;5058853;28;20056;-75
2021/04/23 05:04:44;;;;;;;11.52;1.27;;;1.20;99.90;;;;;;5059426;28;20067;-74
2021/04/23 05:07:10;;;;;;;7.65;1.30;;;1.20;99.90;;;;;;5058968;28;20119;-76
2021/04/23 05:09:35;;;;;;;7.75;1.77;;;1.30;99.90;;;;;;5058343;28;20166;-75
2021/04/23 05:12:01;;;;;;;9.05;1.75;;;1.30;99.90;;;;;;5076333;28;20055;-75
2021/04/23 05:14:27;;;;;;;4.82;0.98;;;1.40;99.90;;;;;;5076564;28;20390;-74
2021/04/23 05:16:53;;;;;;;9.88;1.90;;;1.50;99.90;;;;;;5077166;28;20074;-75
2021/04/23 05:19:19;;;;;;;4.43;1.20;;;1.60;99.90;;;;;;5076249;28;20382;-76
2021/04/23 05:21:45;;;;;;;4.65;1.50;;;1.70;99.90;;;;;;5076305;28;20358;-74
2021/04/23 05:24:11;;;;;;;6.53;0.98;;;1.80;99.90;;;;;;5076183;28;20029;-74
2021/04/23 05:26:37;;;;;;;13.00;1.50;;;1.80;99.90;;;;;;5075820;28;20432;-74
2021/04/23 05:29:04;;;;;;;8.60;1.17;;;1.90;99.90;;;;;;5076297;28;20021;-74
2021/04/23 05:31:31;;;;;;;6.88;1.20;;;2.00;99.90;;;;;;5058282;28;20077;-75
2021/04/23 05:33:57;;;;;;;7.97;1.13;;;2.10;99.90;;;;;;5075863;28;20029;-75
2021/04/23 05:36:22;;;;;;;9.27;1.60;;;2.30;99.90;;;;;;5076283;28;20020;-74
2021/04/23 05:38:48;;;;;;;9.82;1.80;;;2.40;99.90;;;;;;5075885;28;20021;-74
2021/04/23 05:41:13;;;;;;;6.82;1.35;;;2.60;99.90;;;;;;5057685;28;20028;-74
2021/04/23 05:43:42;;;;;;;10.13;1.83;;;2.80;99.90;;;;;;5075966;28;20021;-78
2021/04/23 05:46:08;;;;;;;6.57;1.98;;;2.90;99.90;;;;;;5057634;28;20547;-75
2021/04/23 05:48:33;;;;;;;14.77;1.38;;;3.10;99.90;;;;;;5057450;28;20064;-74
2021/04/23 05:51:00;;;;;;;8.63;1.40;;;3.30;99.90;;;;;;5057488;28;20021;-74
2021/04/23 05:53:25;;;;;;;9.68;2.30;;;3.50;99.90;;;;;;5075418;28;20021;-74
2021/04/23 05:55:51;;;;;;;8.85;1.20;;;3.60;99.90;;;;;;5075124;28;20109;-75
2021/04/23 05:58:16;;;;;;;11.90;1.20;;;3.80;99.90;;;;;;5057646;28;20070;-74
2021/04/23 06:00:43;;;;;;;6.82;0.88;;;4.00;99.90;;;;;;5057481;28;20091;-75
2021/04/23 06:03:09;;;;;;;8.32;1.65;;;4.20;99.90;;;;;;5075638;28;20539;-75
2021/04/23 06:05:36;;;;;;;7.03;1.13;;;4.30;99.90;;;;;;5075528;28;20028;-75
2021/04/23 06:08:05;;;;;;;7.15;0.98;;;4.50;99.90;;;;;;5076055;28;20523;-74
2021/04/23 06:10:31;;;;;;;8.32;0.77;;;4.70;99.90;;;;;;5057343;28;20016;-75
2021/04/23 06:12:58;;;;;;;9.75;0.63;;;4.80;99.90;;;;;;5090227;22;20095;-76
2021/04/23 06:15:25;;;;;;;4.10;0.55;;;5.00;99.90;;;;;;5095676;28;20028;-74
2021/04/23 06:17:53;;;;;;;9.05;0.80;;;5.20;99.90;;;;;;5078946;22;20082;-76
2021/04/23 06:20:20;;;;;;;4.97;0.52;;;5.40;99.90;;;;;;5058069;28;20048;-73
2021/04/23 06:22:49;;;;;;;7.30;1.15;;;5.50;99.90;;;;;;5067225;28;20020;-74
2021/04/23 06:25:16;;;;;;;6.88;0.57;;;5.70;99.90;;;;;;5069115;28;20024;-75
2021/04/23 06:27:43;;;;;;;8.70;0.98;;;5.80;99.90;;;;;;5073219;28;20496;-74
2021/04/23 06:30:16;;;;;;;4.25;0.22;;;5.90;99.90;;;;;;5077131;28;20016;-73
2021/04/23 06:32:44;;;;;;;5.60;0.75;;;6.90;99.90;;;;;;5074680;28;20362;-78
2021/04/23 06:35:21;;;;;;;3.85;0.40;;;6.20;99.90;;;;;;5057322;28;20017;-78
2021/04/23 06:37:48;;;;;;;8.40;0.75;;;6.30;99.90;;;;;;5039648;28;20425;-79
2021/04/23 06:40:15;;;;;;;6.00;0.77;;;6.40;99.90;;;;;;5056289;28;20017;-76
2021/04/23 06:42:41;;;;;;;6.95;0.80;;;6.50;99.90;;;;;;5074871;28;20020;-76
2021/04/23 06:45:10;;;;;;;7.07;1.30;;;6.70;99.90;;;;;;5074836;28;20051;-76
2021/04/23 06:47:36;;;;;;;7.28;0.13;;;6.80;99.90;;;;;;5056384;28;20055;-77
2021/04/23 06:50:04;;;;;;;6.45;0.57;;;7.00;99.90;;;;;;5057010;28;20105;-76
2021/04/23 06:52:31;;;;;;;4.07;0.20;;;7.10;99.90;;;;;;5061485;28;20031;-77
2021/04/23 06:54:57;;;;;;;4.40;0.63;;;7.20;99.90;;;;;;5051724;28;20021;-77
2021/04/23 06:57:23;;;;;;;6.53;0.30;;;7.30;99.90;;;;;;5052750;28;20020;-76
2021/04/23 06:59:49;;;;;;;5.90;0.38;;;7.30;99.90;;;;;;5075804;28;20074;-80
2021/04/23 07:02:14;;;;;;;10.13;0.40;;;7.20;99.90;;;;;;5058467;28;20201;-79
2021/04/23 07:04:40;;;;;;;5.47;0.20;;;7.20;99.90;;;;;;5047661;28;20103;-78
2021/04/23 07:07:05;;;;;;;10.82;1.15;;;7.30;99.90;;;;;;5060920;28;20036;-79
2021/04/23 07:09:31;;;;;;;6.30;1.00;;;7.30;99.90;;;;;;5071231;28;20023;-80
2021/04/23 07:11:57;;;;;;;3.75;0.20;;;7.40;99.90;;;;;;5046588;28;20044;-78
2021/04/23 07:14:23;;;;;;;7.13;0.30;;;7.50;99.90;;;;;;5037398;28;20024;-79
2021/04/23 07:16:49;;;;;;;5.25;0.98;;;7.60;99.90;;;;;;5064524;23;20402;-79
2021/04/23 07:19:14;;;;;;;5.90;0.15;;;7.50;99.90;;;;;;5054808;28;20025;-80
2021/04/23 07:21:40;;;;;;;2.10;0.22;;;7.60;99.90;;;;;;5057127;28;20044;-78
2021/04/23 07:24:06;;;;;;;6.88;0.20;;;7.70;99.90;;;;;;5058157;28;20021;-79
2021/04/23 07:26:31;;;;;;;2.75;0.10;;;7.70;99.90;;;;;;5058678;28;20397;-79
2021/04/23 07:28:57;;;;;;;8.93;0.98;;;7.60;99.90;;;;;;5057157;28;20028;-80
2021/04/23 07:31:23;;;;;;;8.18;0.52;;;7.60;99.90;;;;;;5056647;28;20060;-78
2021/04/23 07:33:49;;;;;;;4.20;0.63;;;7.50;99.90;;;;;;5054003;28;20108;-80
2021/04/23 07:36:15;;;;;;;9.23;0.47;;;7.50;99.90;;;;;;5058053;28;20067;-78
2021/04/23 07:38:40;;;;;;;3.33;0.43;;;7.50;99.90;;;;;;5056959;28;20024;-77
2021/04/23 07:41:06;;;;;;;2.45;0.30;;;7.60;99.90;;;;;;5105731;22;20051;-79
2021/04/23 07:43:32;;;;;;;5.57;0.40;;;7.60;99.90;;;;;;5089656;22;20035;-78
2021/04/23 07:45:58;;;;;;;3.33;0.28;;;9.00;99.90;;;;;;5076005;28;20032;-77
2021/04/23 07:48:24;;;;;;;5.53;0.38;;;7.70;99.90;;;;;;5094204;28;20016;-78
2021/04/23 07:50:50;;;;;;;3.10;0.60;;;8.10;98.10;;;;;;5075844;28;20035;-78
2021/04/23 07:53:15;;;;;;;6.70;0.45;;;8.30;97.80;;;;;;5075693;28;20061;-78
2021/04/23 07:55:41;;;;;;;4.38;0.20;;;8.50;93.80;;;;;;5094153;28;20103;-77
2021/04/23 07:58:07;;;;;;;15.55;0.52;;;8.50;95.20;;;;;;5076274;28;20472;-77
2021/04/23 08:00:33;;;;;;;4.93;0.45;;;8.70;96.60;;;;;;5095229;28;20054;-77
2021/04/23 08:02:58;;;;;;;5.68;0.30;;;8.80;95.80;;;;;;5077004;28;20031;-77
2021/04/23 08:05:25;;;;;;;9.85;0.47;;;9.00;93.50;;;;;;5076860;28;20020;-77
2021/04/23 08:07:50;;;;;;;3.40;0.77;;;9.20;92.30;;;;;;5076536;28;20031;-77
2021/04/23 08:10:18;;;;;;;5.55;0.45;;;9.30;90.40;;;;;;5095041;28;20460;-77
2021/04/23 08:12:47;;;;;;;7.15;0.65;;;9.40;91.30;;;;;;5094335;28;20020;-77
2021/04/23 08:15:15;;;;;;;5.38;0.77;;;9.40;91.70;;;;;;5094792;28;20472;-77
2021/04/23 08:17:41;;;;;;;4.32;0.20;;;9.30;91.80;;;;;;5094531;28;20074;-78
2021/04/23 08:20:08;;;;;;;2.08;0.10;;;9.40;90.00;;;;;;5077702;28;20016;-78
2021/04/23 08:22:35;;;;;;;3.03;0.00;;;9.40;92.40;;;;;;5076794;28;20020;-76
2021/04/23 08:25:01;;;;;;;5.00;0.10;;;9.40;92.80;;;;;;5076130;28;20016;-77
2021/04/23 08:27:27;;;;;;;5.65;0.55;;;9.20;90.30;;;;;;5094439;28;20035;-75
2021/04/23 08:29:55;;;;;;;9.07;0.98;;;9.20;93.00;;;;;;5076229;28;20016;-76
2021/04/23 08:32:21;;;;;;;6.43;0.20;;;9.40;92.90;;;;;;5076678;28;20024;-76
2021/04/23 08:34:47;;;;;;;3.15;0.45;;;9.50;90.60;;;;;;5094588;28;20030;-76
2021/04/23 08:37:13;;;;;;;7.25;0.77;;;9.50;91.00;;;;;;5094818;28;20099;-75
2021/04/23 08:39:39;;;;;;;11.55;1.50;;;9.50;88.20;;;;;;5076873;28;20020;-76
2021/04/23 08:42:06;;;;;;;4.28;0.20;;;9.50;88.30;;;;;;5076521;28;20024;-76
2021/04/23 08:44:34;;;;;;;5.93;0.77;;;9.60;91.00;;;;;;5076173;28;20097;-75
2021/04/23 08:46:59;;;;;;;4.32;0.52;;;9.90;86.80;;;;;;5078769;28;20020;-76
2021/04/23 08:49:25;;;;;;;7.55;0.85;;;9.90;86.80;;;;;;5093465;22;20081;-74
2021/04/23 08:51:52;;;;;;;4.85;0.50;;;10.00;87.60;;;;;;5080541;28;20035;-74
2021/04/23 08:54:21;;;;;;;6.25;0.28;;;10.20;85.20;;;;;;5098731;28;20051;-75
2021/04/23 08:56:48;;;;;;;4.72;0.22;;;10.30;80.00;;;;;;5089600;22;20048;-75
2021/04/23 08:59:14;;;;;;;5.68;0.30;;;10.40;81.90;;;;;;5077003;28;20413;-76
2021/04/23 09:01:40;;;;;;;3.75;0.52;;;10.40;79.60;;;;;;5077630;28;20025;-75
2021/04/23 09:04:05;;;;;;;4.45;0.88;;;10.60;80.90;;;;;;5051157;28;20478;-75
2021/04/23 09:06:31;;;;;;;11.70;0.30;;;10.70;77.10;;;;;;5058905;28;20029;-77
2021/04/23 09:09:03;;;;;;;5.70;0.25;;;10.80;80.10;;;;;;5073981;28;20035;-78
2021/04/23 09:11:35;;;;;;;6.65;0.80;;;11.00;74.80;;;;;;5059935;28;20017;-77
2021/04/23 09:14:04;;;;;;;4.25;0.20;;;11.10;73.30;;;;;;5043146;28;20037;-75
2021/04/23 09:16:45;;;;;;;4.22;0.43;;;11.10;73.90;;;;;;5076099;28;20027;-77
2021/04/23 09:19:17;;;;;;;11.63;0.90;;;10.90;72.80;;;;;;5055060;28;20477;-75
2021/04/23 09:21:50;;;;;;;6.20;0.73;;;11.00;75.50;;;;;;5076830;28;20093;-77
2021/04/23 09:24:26;;;;;;;6.35;0.22;;;11.10;73.60;;;;;;5058476;28;20032;-76
2021/04/23 09:26:55;;;;;;;5.72;0.52;;;11.20;69.90;;;;;;5076161;28;20433;-77
2021/04/23 09:29:25;;;;;;;3.63;0.05;;;11.30;69.00;;;;;;5077051;28;20374;-76
2021/04/23 09:31:51;;;;;;;;;;;11.40;68.30;;;;;;5053156;28;20049;-78
2021/04/23 09:34:20;;;;;;;3.90;0.10;;;11.40;70.20;;;;;;5072095;28;19908;-78
2021/04/23 09:36:47;;;;;;;5.88;0.25;;;11.50;66.30;;;;;;5075780;28;20039;-77
2021/04/23 09:39:21;;;;;;;6.63;0.90;;;11.50;68.00;;;;;;5057059;28;20423;-77
2021/04/23 09:41:58;;;;;;;2.10;0.40;;;11.60;68.60;;;;;;5055962;28;20032;-76
2021/04/23 09:44:36;;;;;;;4.53;0.63;;;11.80;71.00;;;;;;5076074;28;20401;-77
2021/04/23 09:47:07;;;;;;;4.78;0.47;;;12.00;70.20;;;;;;5054178;28;20056;-77
2021/04/23 09:49:34;;;;;;;3.70;0.65;;;12.00;69.00;;;;;;5058270;28;20386;-76
2021/04/23 09:52:02;;;;;;;11.63;0.52;;;12.00;68.40;;;;;;5076570;28;20386;-76
2021/04/23 09:54:27;;;;;;;5.45;0.10;;;11.80;70.10;;;;;;5109897;22;20047;-75
2021/04/23 09:56:54;;;;;;;5.60;0.45;;;11.80;68.40;;;;;;5095598;28;20369;-75
2021/04/23 09:59:21;;;;;;;5.57;0.20;;;12.00;66.20;;;;;;5095116;28;20043;-75
2021/04/23 10:02:02;;;;;;;4.90;0.30;;;12.20;65.00;;;;;;5094902;28;20115;-75
2021/04/23 10:04:31;;;;;;;2.85;0.35;;;12.10;62.80;;;;;;5095523;28;20027;-75
2021/04/23 10:07:09;;;;;;;3.00;0.15;;;12.10;63.20;;;;;;5074738;28;20507;-75
2021/04/23 10:09:48;;;;;;;2.90;0.27;;;12.30;64.80;;;;;;5087526;28;20109;-75
2021/04/23 10:12:49;;;;;;;1.85;0.45;;;12.50;63.30;;;;;;5109894;28;20025;-75
2021/04/23 10:15:21;;;;;;;3.15;0.55;;;12.60;62.40;;;;;;5093924;28;20438;-75
2021/04/23 10:17:49;;;;;;;7.22;0.30;;;12.70;64.60;;;;;;5095321;28;20024;-75
2021/04/23 10:20:32;;;;;;;2.45;0.10;;;12.80;62.70;;;;;;5093515;28;20027;-75
2021/04/23 10:22:59;;;;;;;8.25;0.45;;;12.90;62.30;;;;;;5094842;28;20020;-75
2021/04/23 10:25:27;;;;;;;9.93;0.75;;;13.10;63.70;;;;;;5094459;28;20484;-75
2021/04/23 10:27:54;;;;;;;6.88;0.45;;;13.20;61.40;;;;;;5095009;28;20024;-76
2021/04/23 10:30:22;;;;;;;4.82;0.08;;;13.20;59.80;;;;;;5095017;28;20099;-77
2021/04/23 10:32:49;;;;;;;2.67;0.00;;;13.20;61.20;;;;;;5092060;28;20546;-78
2021/04/23 10:35:16;;;;;;;5.10;0.82;;;13.40;60.20;;;;;;5096362;22;20060;-75
2021/04/23 10:37:43;;;;;;;2.72;0.50;;;13.30;60.40;;;;;;5075193;28;20032;-79
2021/04/23 10:40:10;;;;;;;6.65;0.63;;;13.30;61.10;;;;;;5104467;22;20044;-77
2021/04/23 10:42:41;;;;;;;3.00;0.10;;;13.30;56.50;;;;;;5087140;28;20035;-76
2021/04/23 10:45:37;;;;;;;5.20;0.38;;;13.40;57.90;;;;;;5069869;28;20069;-76
2021/04/23 10:48:25;;;;;;;4.65;0.57;;;13.60;60.60;;;;;;5087894;28;20032;-78
2021/04/23 10:51:06;;;;;;;3.90;0.57;;;13.70;59.50;;;;;;5075065;28;20467;-76
2021/04/23 10:53:46;;;;;;;5.30;0.47;;;13.70;59.70;;;;;;5094488;28;20063;-77
2021/04/23 10:56:28;;;;;;;1.77;0.32;;;13.90;60.00;;;;;;5102898;28;20365;-76
2021/04/23 10:59:01;;;;;;;5.50;0.28;;;14.10;59.40;;;;;;5077740;28;20028;-77
2021/04/23 11:01:29;;;;;;;6.05;0.52;;;14.30;59.10;;;;;;5085466;28;20047;-76
2021/04/23 11:04:03;;;;;;;5.03;0.93;;;14.40;58.30;;;;;;5094562;28;20024;-77
2021/04/23 11:06:35;;;;;;;1.60;0.10;;;14.50;57.50;;;;;;5102374;22;20040;-77
2021/04/23 11:09:14;;;;;;;3.47;0.10;;;14.50;59.70;;;;;;5074059;28;20071;-76
2021/04/23 11:11:41;;;;;;;4.40;0.17;;;14.30;57.40;;;;;;5074514;28;20045;-75
2021/04/23 11:14:28;;;;;;;5.53;0.28;;;14.70;58.00;;;;;;5087054;22;20036;-76
2021/04/23 11:17:15;;;;;;;3.42;0.25;;;14.70;57.20;;;;;;5064906;28;20368;-77
2021/04/23 11:19:41;;;;;;;5.18;0.30;;;14.80;58.90;;;;;;5070905;22;20052;-77
2021/04/23 11:22:10;;;;;;;1.55;0.03;;;15.10;55.90;;;;;;5055247;28;20031;-76
2021/04/23 11:24:37;;;;;;;4.32;0.55;;;15.10;54.10;;;;;;5055688;28;20116;-75
2021/04/23 11:27:05;;;;;;;4.18;0.10;;;15.00;54.50;;;;;;5056140;28;20017;-77
2021/04/23 11:29:41;;;;;;;5.95;0.40;;;15.20;55.10;;;;;;5073503;28;20052;-77
2021/04/23 11:32:12;;;;;;;0.75;0.08;;;15.20;54.20;;;;;;5074117;28;20031;-77
2021/04/23 11:34:49;;;;;;;3.20;0.30;;;15.30;54.70;;;;;;5073377;28;20032;-77
2021/04/23 11:37:40;;;;;;;6.78;0.30;;;15.40;56.40;;;;;;5073324;28;20116;-76
2021/04/23 11:40:27;;;;;;;4.30;0.52;;;15.60;55.60;;;;;;5056270;28;20206;-77
2021/04/23 11:43:04;;;;;;;3.60;0.20;;;15.70;53.70;;;;;;5074489;28;20384;-77
2021/04/23 11:45:32;;;;;;;4.60;0.17;;;15.60;54.00;;;;;;5074693;28;20017;-78
2021/04/23 11:48:09;;;;;;;3.67;0.77;;;15.70;53.40;;;;;;5074567;28;20070;-77
2021/04/23 11:50:42;;;;;;;2.75;0.35;;;15.80;53.80;;;;;;5056529;28;20021;-77
2021/04/23 11:53:18;;;;;;;7.35;0.68;;;15.90;53.80;;;;;;5056687;28;20047;-78
2021/04/23 11:55:49;;;;;;;4.15;0.35;;;15.80;52.00;;;;;;5074348;28;20392;-77
2021/04/23 11:58:23;;;;;;;2.63;0.10;;;15.90;51.70;;;;;;5074141;28;20020;-78
2021/04/23 12:00:56;;;;;;;4.93;0.35;;;16.10;51.30;;;;;;5074359;28;20103;-78
2021/04/23 12:03:23;;;;;;;4.30;0.40;;;16.20;53.60;;;;;;5056302;28;20063;-77
2021/04/23 12:05:54;;;;;;;3.83;0.95;;;16.40;52.10;;;;;;5055730;28;20031;-77
2021/04/23 12:08:21;;;;;;;4.72;0.63;;;16.60;52.00;;;;;;5073447;28;20028;-77
2021/04/23 12:10:54;;;;;;;5.38;0.40;;;16.80;53.10;;;;;;5073869;28;20021;-75
2021/04/23 12:16:04;;;;;;;4.50;0.68;;;16.70;49.50;;;;;;5105591;22;20040;-78
2021/04/23 12:18:30;;;;;;;3.72;0.22;;;16.70;50.30;;;;;;5093574;28;20052;-76
2021/04/23 12:21:01;;;;;;;5.72;0.60;;;16.60;51.70;;;;;;5094392;28;20027;-75
2021/04/23 12:23:29;;;;;;;3.40;0.20;;;16.40;52.40;;;;;;5097329;28;20020;-75
2021/04/23 12:25:59;;;;;;;6.10;0.50;;;16.50;52.80;;;;;;5097099;28;20067;-75
2021/04/23 12:28:28;;;;;;;3.05;0.50;;;16.50;52.10;;;;;;5078578;28;20024;-75
2021/04/23 12:30:55;;;;;;;6.32;0.57;;;16.70;52.20;;;;;;5078685;28;20483;-75
2021/04/23 12:33:21;;;;;;;3.50;0.28;;;16.60;51.40;;;;;;5078577;28;20503;-75
2021/04/23 12:35:51;;;;;;;4.18;0.60;;;16.70;53.60;;;;;;5078407;28;20027;-75
2021/04/23 12:38:35;;;;;;;3.95;0.45;;;16.90;52.20;;;;;;5096458;28;20020;-75
2021/04/23 12:41:00;;;;;;;2.60;0.40;;;17.30;51.30;;;;;;5096954;28;20511;-75
2021/04/23 12:43:26;;;;;;;3.85;0.52;;;17.50;50.70;;;;;;5078356;28;20046;-75
2021/04/23 12:45:54;;;;;;;4.78;0.20;;;17.70;48.70;;;;;;5096556;28;20485;-76
2021/04/23 12:48:22;;;;;;;4.97;0.70;;;17.60;50.80;;;;;;5079248;28;20511;-74
2021/04/23 12:50:50;;;;;;;5.43;0.65;;;17.70;50.60;;;;;;5078622;28;20012;-74
2021/04/23 12:53:19;;;;;;;4.93;0.30;;;17.70;49.20;;;;;;5096968;28;20017;-75
2021/04/23 12:55:46;;;;;;;4.63;0.57;;;17.90;48.90;;;;;;5097115;28;20039;-76
2021/04/23 12:58:11;;;;;;;3.70;0.45;;;17.90;49.20;;;;;;5091495;22;20020;-76
2021/04/23 13:00:39;;;;;;;2.40;0.63;;;20.60;53.20;;;;;;5075368;28;20029;-75
2021/04/23 13:03:05;;;;;;;6.50;0.75;;;18.10;50.50;;;;;;5072934;22;20048;-78
2021/04/23 13:05:31;;;;;;;1.92;0.10;;;18.20;49.50;;;;;;5077117;28;20016;-77
2021/04/23 13:08:01;;;;;;;5.15;0.50;;;18.20;49.60;;;;;;5092590;28;20024;-75